Time;durP1;ratioP1;P1;durP2;ratioP2;P2;SDS_P1;SDS_P2;PMS_P1;PMS_P2;Temp;Humidity;BMP_temperature;BMP_pressure;BME280_temperature;BME280_humidity;BME280_pressure;Samples;Min_cycle;Max_cycle;Signal;HPM_P1;HPM_P2
2022/02/27 00:01:34;;;;;;;50.20;24.30;;;;;;;-0.14;73.65;102094.02;2182169;79;21012;-73
2022/02/27 00:04:36;;;;;;;44.85;23.57;;;;;;;-0.20;73.36;102098.10;2195095;80;21096;-73
2022/02/27 00:07:38;;;;;;;45.30;23.95;;;;;;;-0.28;73.24;102106.66;2182433;79;21136;-72
2022/02/27 00:10:39;;;;;;;48.68;24.50;;;;;;;-0.34;73.48;102112.04;2188643;79;21068;-72
2022/02/27 00:13:41;;;;;;;53.50;25.27;;;;;;;-0.39;73.76;102108.29;2171641;80;21021;-72
2022/02/27 00:16:43;;;;;;;57.85;28.25;;;;;;;-0.48;73.89;102116.38;2160402;81;21013;-72
2022/02/27 00:19:44;;;;;;;56.83;29.18;;;;;;;-0.63;74.09;102120.77;2161739;81;21065;-74
2022/02/27 00:22:46;;;;;;;57.55;28.95;;;;;;;-0.76;74.21;102114.63;2209268;79;21029;-72
2022/02/27 00:25:49;;;;;;;59.15;28.27;;;;;;;-0.86;74.40;102106.66;2210324;79;21004;-71
2022/02/27 00:28:51;;;;;;;58.28;28.57;;;;;;;-0.84;74.62;102109.23;2143189;81;21582;-74
2022/02/27 00:31:53;;;;;;;61.90;30.40;;;;;;;-0.81;74.57;102099.56;2145286;81;21061;-72
2022/02/27 00:34:55;;;;;;;54.03;27.42;;;;;;;-0.78;74.65;102099.47;2207183;80;21025;-71
2022/02/27 00:37:59;;;;;;;55.85;28.05;;;;;;;-0.77;74.61;102100.31;2205111;80;21041;-72
2022/02/27 00:41:00;;;;;;;53.45;25.92;;;;;;;-0.73;74.47;102100.19;2205461;80;21040;-72
2022/02/27 00:44:03;;;;;;;60.33;28.47;;;;;;;-0.67;74.25;102112.19;2205258;80;21040;-73
2022/02/27 00:47:07;;;;;;;50.05;26.45;;;;;;;-0.64;74.35;102112.55;2207731;80;21040;-72
2022/02/27 00:50:10;;;;;;;49.25;25.27;;;;;;;-0.61;74.21;102110.70;2207714;80;21659;-74
2022/02/27 00:53:11;;;;;;;50.52;24.85;;;;;;;-0.63;74.41;102112.48;2206334;80;21535;-72
2022/02/27 00:56:13;;;;;;;50.83;24.30;;;;;;;-0.65;74.56;102112.13;2206288;80;21009;-73
2022/02/27 00:59:18;;;;;;;47.23;24.55;;;;;;;-0.67;74.59;102110.89;2208968;80;21119;-72
2022/02/27 01:02:19;;;;;;;50.85;25.72;;;;;;;-0.65;74.55;102114.73;2204906;80;21069;-72
2022/02/27 01:05:22;;;;;;;51.77;27.75;;;;;;;-0.73;74.59;102116.29;2208109;80;21053;-73
2022/02/27 01:08:24;;;;;;;55.28;26.95;;;;;;;-0.80;74.76;102117.35;2208884;80;21048;-72
2022/02/27 01:11:27;;;;;;;52.98;26.93;;;;;;;-0.80;74.76;102118.66;2206851;80;21026;-73
2022/02/27 01:14:28;;;;;;;54.03;26.42;;;;;;;-0.79;74.96;102115.14;2209758;80;21369;-72
2022/02/27 01:17:30;;;;;;;53.75;27.60;;;;;;;-0.83;74.56;102110.48;2206652;80;21024;-72
2022/02/27 01:20:31;;;;;;;60.70;30.65;;;;;;;-0.87;74.30;102115.39;2207112;80;21025;-74
2022/02/27 01:23:33;;;;;;;56.90;28.02;;;;;;;-0.91;74.46;102117.66;2205051;80;21073;-73
2022/02/27 01:26:35;;;;;;;51.10;26.95;;;;;;;-0.95;74.65;102117.36;2205048;80;21068;-71
2022/02/27 01:29:37;;;;;;;49.35;25.02;;;;;;;-0.95;74.82;102113.00;2205638;80;20993;-72
2022/02/27 01:32:38;;;;;;;52.35;25.77;;;;;;;-0.99;74.94;102111.36;2206191;80;21536;-72
2022/02/27 01:35:40;;;;;;;51.05;25.35;;;;;;;-1.02;75.07;102111.91;2208192;80;20997;-72
2022/02/27 01:38:45;;;;;;;51.58;25.85;;;;;;;-1.08;75.00;102111.63;2204618;80;21013;-74
2022/02/27 01:41:49;;;;;;;50.55;25.27;;;;;;;-1.07;74.98;102110.75;2205114;80;21650;-72
2022/02/27 01:44:50;;;;;;;46.68;23.80;;;;;;;-1.09;74.94;102119.05;2205447;80;21323;-72
2022/02/27 01:47:52;;;;;;;47.80;25.12;;;;;;;-1.11;75.24;102115.63;2203438;80;21037;-71
2022/02/27 01:50:53;;;;;;;54.25;26.33;;;;;;;-1.14;75.24;102111.80;2205768;80;21691;-73
2022/02/27 01:53:55;;;;;;;49.40;23.85;;;;;;;-1.10;75.15;102112.11;2205636;80;21020;-72
2022/02/27 01:56:59;;;;;;;50.58;24.47;;;;;;;-1.10;74.57;102106.90;2207757;80;21097;-72
2022/02/27 02:00:04;;;;;;;49.93;24.57;;;;;;;-1.18;74.89;102095.41;2206451;80;21552;-73
2022/02/27 02:03:08;;;;;;;50.10;24.98;;;;;;;-1.21;75.19;102107.64;2203526;80;21059;-73
2022/02/27 02:06:10;;;;;;;48.42;25.02;;;;;;;-1.20;75.11;102114.59;2204916;80;21045;-72
2022/02/27 02:09:14;;;;;;;47.30;24.60;;;;;;;-1.21;75.06;102109.83;2205384;80;21091;-73
2022/02/27 02:12:17;;;;;;;42.25;21.55;;;;;;;-1.20;75.01;102106.77;2185817;79;21112;-72
2022/02/27 02:15:19;;;;;;;47.60;24.55;;;;;;;-1.23;74.96;102098.59;2142162;81;21016;-72
2022/02/27 02:18:21;;;;;;;48.08;24.98;;;;;;;-1.17;75.00;102103.63;2150366;81;20997;-72
2022/02/27 02:21:23;;;;;;;52.30;25.52;;;;;;;-1.17;75.04;102109.28;2152353;81;21091;-71
2022/02/27 02:24:25;;;;;;;58.15;27.82;;;;;;;-1.24;75.07;102102.52;2167179;81;21054;-73
2022/02/27 02:27:29;;;;;;;65.45;30.88;;;;;;;-1.34;75.12;102105.84;2185809;79;21033;-72
2022/02/27 02:30:31;;;;;;;65.65;31.23;;;;;;;-1.46;75.09;102107.03;2184762;79;21021;-73
2022/02/27 02:33:36;;;;;;;101.18;35.03;;;;;;;-1.48;75.26;102114.03;2194391;79;21038;-72
2022/02/27 02:36:40;;;;;;;70.52;31.52;;;;;;;-1.51;75.33;102112.81;2178976;80;21124;-73
2022/02/27 02:39:41;;;;;;;67.58;29.45;;;;;;;-1.56;75.47;102101.66;2186574;79;21079;-71
2022/02/27 02:42:46;;;;;;;67.42;30.52;;;;;;;-1.60;75.46;102096.98;2185448;79;21096;-72
2022/02/27 02:45:48;;;;;;;67.92;31.23;;;;;;;-1.59;75.31;102098.69;2187972;79;21001;-72
2022/02/27 02:48:49;;;;;;;62.60;29.30;;;;;;;-1.57;75.16;102097.36;2187230;79;21072;-74
2022/02/27 02:51:56;;;;;;;69.25;32.83;;;;;;;-1.55;75.10;102098.14;2184780;79;21592;-74
2022/02/27 02:54:58;;;;;;;70.17;31.70;;;;;;;-1.57;75.25;102093.45;2187913;79;21039;-71
2022/02/27 02:57:59;;;;;;;65.15;31.10;;;;;;;-1.60;75.14;102097.44;2190705;79;20996;-71
2022/02/27 03:01:02;;;;;;;67.95;33.40;;;;;;;-1.64;75.16;102097.94;2195274;79;21035;-73
2022/02/27 03:04:04;;;;;;;58.80;28.83;;;;;;;-1.64;75.16;102098.40;2192255;79;20998;-72
2022/02/27 03:07:06;;;;;;;63.55;30.00;;;;;;;-1.65;75.25;102098.00;2214704;79;21017;-71
2022/02/27 03:10:10;;;;;;;58.48;29.02;;;;;;;-1.64;75.17;102097.09;2191320;80;21050;-73
2022/02/27 03:13:11;;;;;;;65.03;31.35;;;;;;;-1.64;75.08;102094.49;2189578;80;21017;-72
2022/02/27 03:16:14;;;;;;;79.53;32.17;;;;;;;-1.65;74.95;102096.70;2161559;81;21065;-73
2022/02/27 03:19:15;;;;;;;61.75;30.52;;;;;;;-1.71;75.16;102097.71;2142815;81;21092;-73
2022/02/27 03:22:17;;;;;;;66.65;32.00;;;;;;;-1.70;75.23;102102.47;2156406;81;20997;-72
2022/02/27 03:25:18;;;;;;;63.28;31.30;;;;;;;-1.79;75.14;102101.41;2157227;81;21108;-73
2022/02/27 03:28:20;;;;;;;59.05;31.15;;;;;;;-1.89;75.37;102106.83;2182670;80;21007;-74
2022/02/27 03:31:22;;;;;;;68.15;32.67;;;;;;;-1.91;75.53;102102.13;2142489;81;21554;-72
2022/02/27 03:34:23;;;;;;;69.25;32.25;;;;;;;-1.93;75.45;102105.20;2175893;80;21021;-72
2022/02/27 03:37:25;;;;;;;68.70;33.50;;;;;;;-1.91;75.45;102104.73;2182642;80;21076;-72
2022/02/27 03:40:27;;;;;;;68.67;34.18;;;;;;;-1.93;75.36;102105.66;2194542;80;21044;-71
2022/02/27 03:43:28;;;;;;;68.25;32.60;;;;;;;-1.96;75.51;102101.83;2156222;81;21020;-72
2022/02/27 03:46:34;;;;;;;70.20;32.60;;;;;;;-1.89;75.56;102099.47;2151408;81;21010;-73
2022/02/27 03:49:36;;;;;;;71.55;34.70;;;;;;;-1.89;75.59;102110.73;2141655;81;21691;-72
2022/02/27 03:52:38;;;;;;;77.62;35.20;;;;;;;-1.95;75.54;102121.30;2142715;81;21021;-72
2022/02/27 03:55:39;;;;;;;66.07;33.48;;;;;;;-2.03;75.73;102120.62;2177903;80;21052;-71
2022/02/27 03:58:41;;;;;;;69.65;34.10;;;;;;;-2.12;75.74;102119.55;2149320;81;21029;-72
2022/02/27 04:01:42;;;;;;;74.80;33.50;;;;;;;-2.22;75.94;102125.43;2147139;81;21041;-72
2022/02/27 04:04:44;;;;;;;72.78;33.38;;;;;;;-2.22;76.04;102117.63;2178366;80;20992;-73
2022/02/27 04:07:45;;;;;;;60.67;29.80;;;;;;;-2.18;75.91;102121.00;2181300;80;21672;-72
2022/02/27 04:10:47;;;;;;;64.80;29.60;;;;;;;-2.24;75.63;102125.90;2160736;81;21010;-73
2022/02/27 04:13:48;;;;;;;58.40;29.70;;;;;;;-2.24;75.75;102125.05;2162036;80;21007;-71
2022/02/27 04:16:50;;;;;;;64.60;30.02;;;;;;;-2.22;75.57;102131.05;2208609;79;21056;-73
2022/02/27 04:19:52;;;;;;;70.22;31.33;;;;;;;-2.26;75.70;102136.33;2181303;79;21813;-72
2022/02/27 04:22:53;;;;;;;68.47;32.17;;;;;;;-2.29;75.85;102135.55;2145004;80;21025;-72
2022/02/27 04:25:55;;;;;;;70.12;32.00;;;;;;;-2.26;75.96;102131.13;2160421;81;21088;-71
2022/02/27 04:28:56;;;;;;;63.38;31.85;;;;;;;-2.18;76.10;102131.41;2207421;79;21025;-72
2022/02/27 04:31:58;;;;;;;82.57;38.10;;;;;;;-2.15;76.03;102136.08;2205659;79;21540;-72
2022/02/27 04:34:59;;;;;;;71.07;34.58;;;;;;;-2.12;76.18;102132.55;2211946;79;20986;-73
2022/02/27 04:38:01;;;;;;;69.50;33.53;;;;;;;-2.14;75.88;102130.01;2212431;79;20997;-71
2022/02/27 04:41:02;;;;;;;66.12;32.42;;;;;;;-2.14;75.57;102140.41;2210893;79;21595;-72
2022/02/27 04:44:04;;;;;;;70.90;33.65;;;;;;;-2.19;75.41;102144.02;2182461;79;21060;-72
2022/02/27 04:47:06;;;;;;;61.28;30.25;;;;;;;-2.22;75.55;102151.44;2183692;79;21017;-73
2022/02/27 04:50:08;;;;;;;72.87;33.50;;;;;;;-2.28;75.64;102156.33;2174134;80;21562;-73
2022/02/27 04:53:10;;;;;;;71.12;32.60;;;;;;;-2.41;75.78;102152.73;2144361;81;20997;-72
2022/02/27 04:56:11;;;;;;;64.15;31.68;;;;;;;-2.44;76.13;102159.31;2204534;80;21052;-73
2022/02/27 04:59:13;;;;;;;69.82;32.38;;;;;;;-2.43;75.99;102155.36;2204183;80;21698;-72
2022/02/27 05:02:17;;;;;;;73.62;35.75;;;;;;;-2.52;76.15;102151.66;2204963;80;21033;-72
2022/02/27 05:05:18;;;;;;;68.45;34.23;;;;;;;-2.57;76.39;102161.30;2204904;80;21073;-71
2022/02/27 05:08:20;;;;;;;64.67;32.23;;;;;;;-2.52;76.72;102161.61;2207458;80;21112;-74
2022/02/27 05:11:22;;;;;;;63.98;31.07;;;;;;;-2.51;76.51;102152.06;2204551;80;21020;-72
2022/02/27 05:14:23;;;;;;;69.27;31.33;;;;;;;-2.47;76.42;102164.12;2204684;80;21080;-72
2022/02/27 05:17:25;;;;;;;59.88;30.50;;;;;;;-2.42;76.31;102175.29;2205384;80;21036;-73
2022/02/27 05:20:27;;;;;;;67.55;32.17;;;;;;;-2.40;76.23;102181.29;2206841;80;20993;-72
2022/02/27 05:23:29;;;;;;;63.87;30.92;;;;;;;-2.37;76.24;102182.52;2207192;80;20977;-72
2022/02/27 05:26:31;;;;;;;60.88;31.25;;;;;;;-2.41;76.57;102190.44;2208073;80;21006;-72
2022/02/27 05:29:32;;;;;;;60.33;28.17;;;;;;;-2.40;76.62;102186.48;2206850;80;20990;-71
2022/02/27 05:32:34;;;;;;;57.75;30.23;;;;;;;-2.39;77.00;102190.82;2204204;80;21586;-72
2022/02/27 05:35:35;;;;;;;62.00;29.55;;;;;;;-2.38;77.05;102192.97;2207278;80;21011;-72
2022/02/27 05:38:37;;;;;;;59.42;29.37;;;;;;;-2.35;77.19;102192.90;2206120;80;21512;-72
2022/02/27 05:41:42;;;;;;;62.20;29.72;;;;;;;-2.31;77.25;102198.43;2209287;80;21046;-71
2022/02/27 05:44:42;;;;;;;60.73;29.10;;;;;;;-2.28;77.19;102203.14;2205997;80;21080;-72
2022/02/27 05:47:44;;;;;;;66.12;30.30;;;;;;;-2.23;77.27;102211.27;2208781;80;20978;-72
2022/02/27 05:50:45;;;;;;;59.60;30.05;;;;;;;-2.21;77.23;102214.25;2208973;80;21037;-74
2022/02/27 05:53:47;;;;;;;59.80;29.52;;;;;;;-2.17;77.09;102215.03;2207105;80;21033;-73
2022/02/27 05:56:48;;;;;;;64.92;31.50;;;;;;;-2.13;77.15;102218.00;2208649;80;21048;-72
2022/02/27 05:59:50;;;;;;;70.60;34.18;;;;;;;-2.08;77.28;102217.45;2209260;80;21041;-74
2022/02/27 06:02:51;;;;;;;77.80;36.10;;;;;;;-2.06;78.15;102209.15;2205243;80;21006;-71
2022/02/27 06:05:54;;;;;;;84.15;37.03;;;;;;;-2.00;78.80;102216.80;2210250;80;20966;-71
2022/02/27 06:08:55;;;;;;;84.03;38.83;;;;;;;-1.92;79.06;102224.00;2201661;80;21073;-72
2022/02/27 06:11:59;;;;;;;88.95;36.98;;;;;;;-1.84;79.04;102219.47;2167262;81;21084;-72
2022/02/27 06:15:00;;;;;;;96.28;42.15;;;;;;;-1.73;79.14;102230.09;2138198;82;21033;-71
2022/02/27 06:18:02;;;;;;;105.22;46.20;;;;;;;-1.62;79.74;102233.29;2194215;80;21028;-71
2022/02/27 06:21:04;;;;;;;100.33;45.43;;;;;;;-1.53;80.22;102233.06;2195808;80;21087;-71
2022/02/27 06:24:06;;;;;;;105.25;46.00;;;;;;;-1.48;80.71;102231.20;2167978;81;21028;-72
2022/02/27 06:27:08;;;;;;;104.47;44.03;;;;;;;-1.42;80.80;102244.06;2135864;81;21087;-72
2022/02/27 06:30:18;;;;;;;98.00;44.83;;;;;;;-1.35;81.66;102238.28;2173722;81;21602;-72
2022/02/27 06:33:20;;;;;;;101.00;42.13;;;;;;;-1.29;81.54;102247.69;2196589;79;21071;-72
2022/02/27 06:36:22;;;;;;;96.87;40.40;;;;;;;-1.23;82.41;102255.34;2194047;79;21100;-75
2022/02/27 06:39:23;;;;;;;92.57;42.75;;;;;;;-1.20;82.82;102250.90;2198248;79;21520;-77
2022/02/27 06:42:25;;;;;;;97.90;41.90;;;;;;;-1.17;82.96;102248.67;2195465;79;21550;-73
2022/02/27 06:45:26;;;;;;;97.12;43.23;;;;;;;-1.16;83.85;102253.82;2196089;79;21488;-72
2022/02/27 06:48:28;;;;;;;97.72;42.93;;;;;;;-1.14;84.13;102248.59;2196601;79;21539;-73
2022/02/27 06:51:29;;;;;;;90.12;40.78;;;;;;;-1.11;83.73;102257.63;2196203;79;21053;-72
2022/02/27 06:54:31;;;;;;;83.78;37.73;;;;;;;-1.05;83.83;102253.55;2193894;79;21057;-72
2022/02/27 06:57:33;;;;;;;82.72;37.75;;;;;;;-1.04;83.73;102264.41;2167025;81;21620;-74
2022/02/27 07:00:34;;;;;;;85.32;38.48;;;;;;;-1.01;84.09;102260.86;2133711;82;21075;-73
2022/02/27 07:03:36;;;;;;;82.25;36.40;;;;;;;-1.02;84.06;102271.70;2192779;80;21011;-72
2022/02/27 07:06:37;;;;;;;79.60;36.60;;;;;;;-1.01;84.28;102277.34;2197577;79;21005;-72
2022/02/27 07:09:40;;;;;;;87.45;39.20;;;;;;;-1.01;84.09;102276.05;2177427;79;21073;-71
2022/02/27 07:12:43;;;;;;;83.67;36.35;;;;;;;-1.00;84.21;102272.98;2171889;80;21084;-72
2022/02/27 07:15:45;;;;;;;81.37;35.95;;;;;;;-0.97;84.25;102285.48;2171769;80;21045;-72
2022/02/27 07:18:46;;;;;;;75.60;36.88;;;;;;;-0.95;84.05;102290.22;2181736;79;21068;-72
2022/02/27 07:21:48;;;;;;;80.05;32.53;;;;;;;-0.91;84.01;102296.20;2182623;79;21103;-71
2022/02/27 07:24:50;;;;;;;74.15;33.15;;;;;;;-0.90;84.47;102303.14;2211697;79;21067;-73
2022/02/27 07:27:51;;;;;;;68.60;32.78;;;;;;;-0.86;84.05;102296.09;2210867;79;21056;-73
2022/02/27 07:30:53;;;;;;;73.22;33.70;;;;;;;-0.81;84.05;102287.70;2164301;81;20997;-73
2022/02/27 07:33:55;;;;;;;85.53;37.15;;;;;;;-0.76;84.04;102286.69;2159129;81;21015;-72
2022/02/27 07:36:56;;;;;;;83.25;37.35;;;;;;;-0.70;84.11;102292.19;2156557;81;21111;-72
2022/02/27 07:39:58;;;;;;;74.30;34.27;;;;;;;-0.65;83.90;102290.73;2175525;80;21371;-72
2022/02/27 07:42:59;;;;;;;80.65;36.35;;;;;;;-0.56;83.92;102297.87;2182555;80;21578;-73
2022/02/27 07:46:03;;;;;;;72.08;32.28;;;;;;;-0.54;83.98;102296.05;2188786;79;21604;-69
2022/02/27 07:49:05;;;;;;;84.00;35.92;;;;;;;-0.52;84.14;102300.79;2218273;79;21037;-71
2022/02/27 07:52:07;;;;;;;78.10;34.33;;;;;;;-0.50;84.11;102304.22;2217182;79;21085;-73
2022/02/27 07:55:10;;;;;;;77.03;34.33;;;;;;;-0.44;83.94;102302.34;2219065;79;21468;-75
2022/02/27 07:58:13;;;;;;;82.78;36.73;;;;;;;-0.40;84.30;102300.89;2221094;79;21016;-71
2022/02/27 08:01:15;;;;;;;90.32;38.10;;;;;;;-0.36;83.96;102302.53;2214075;79;21313;-71
2022/02/27 08:04:17;;;;;;;80.67;36.93;;;;;;;-0.26;84.13;102297.89;2216676;79;21045;-72
2022/02/27 08:07:19;;;;;;;89.03;37.70;;;;;;;-0.22;84.17;102290.86;2218796;79;21016;-75
2022/02/27 08:10:22;;;;;;;78.25;34.18;;;;;;;-0.17;83.94;102295.47;2201434;79;21073;-68
2022/02/27 08:13:24;;;;;;;83.60;34.90;;;;;;;-0.17;84.27;102291.13;2190978;79;21002;-72
2022/02/27 08:16:28;;;;;;;66.07;28.77;;;;;;;-0.13;84.11;102287.97;2190151;79;21008;-73
2022/02/27 08:19:30;;;;;;;70.57;32.58;;;;;;;-0.06;84.36;102299.50;2192030;79;21635;-73
2022/02/27 08:22:37;;;;;;;73.97;32.25;;;;;;;-0.02;84.12;102294.58;2196636;79;21560;-73
2022/02/27 08:25:40;;;;;;;81.60;34.35;;;;;;;0.01;84.50;102296.70;2196921;79;21477;-71
2022/02/27 08:28:42;;;;;;;84.35;36.30;;;;;;;0.05;84.42;102298.31;2197291;79;21104;-72
2022/02/27 08:31:46;;;;;;;76.70;34.13;;;;;;;0.09;84.38;102302.55;2194835;79;21013;-71
2022/02/27 08:34:48;;;;;;;71.30;31.68;;;;;;;0.07;84.60;102299.12;2188418;79;21405;-71
2022/02/27 08:37:49;;;;;;;79.67;35.05;;;;;;;0.04;84.87;102303.14;2195469;79;22146;-72
2022/02/27 08:40:51;;;;;;;87.37;36.25;;;;;;;0.03;84.75;102298.37;2196861;79;21002;-72
2022/02/27 08:43:53;;;;;;;89.42;36.53;;;;;;;0.05;84.57;102302.23;2195703;79;21014;-73
2022/02/27 08:46:57;;;;;;;77.37;33.28;;;;;;;0.15;84.57;102300.60;2195812;79;21032;-72
2022/02/27 08:50:01;;;;;;;71.37;32.48;;;;;;;0.25;84.81;102301.16;2192026;79;21607;-73
2022/02/27 08:53:03;;;;;;;84.72;38.20;;;;;;;0.26;84.80;102304.20;2191855;79;21543;-76
2022/02/27 08:56:05;;;;;;;86.37;35.90;;;;;;;0.28;84.72;102306.74;2190660;79;21013;-71
2022/02/27 08:59:07;;;;;;;81.22;35.48;;;;;;;0.31;85.07;102303.61;2193680;79;22289;-77
2022/02/27 09:02:08;;;;;;;74.65;33.60;;;;;;;0.29;85.05;102300.19;2189720;79;21064;-73
2022/02/27 09:05:11;;;;;;;71.72;31.95;;;;;;;0.36;85.38;102292.55;2190203;79;21081;-73
2022/02/27 09:08:13;;;;;;;81.12;33.60;;;;;;;0.42;85.31;102291.07;2190897;79;21100;-73
2022/02/27 09:11:16;;;;;;;76.57;31.93;;;;;;;0.46;85.67;102290.97;2207885;79;21623;-73
2022/02/27 09:14:18;;;;;;;76.75;35.28;;;;;;;0.47;85.77;102291.36;2211314;79;21048;-71
2022/02/27 09:17:20;;;;;;;72.47;32.28;;;;;;;0.46;85.82;102288.36;2214539;79;22238;-73
2022/02/27 09:20:22;;;;;;;75.87;31.68;;;;;;;0.55;85.72;102295.44;2210967;79;21063;-75
2022/02/27 09:23:27;;;;;;;69.42;30.85;;;;;;;0.56;86.03;102287.98;2208821;79;20985;-72
2022/02/27 09:26:30;;;;;;;74.53;33.08;;;;;;;0.60;85.93;102284.84;2210542;79;21045;-73
2022/02/27 09:29:33;;;;;;;76.65;33.67;;;;;;;0.67;86.22;102289.80;2213270;79;21112;-75
2022/02/27 09:32:35;;;;;;;67.72;29.85;;;;;;;0.79;85.95;102288.58;2215296;79;21044;-73
2022/02/27 09:35:38;;;;;;;74.87;32.28;;;;;;;0.97;85.91;102286.24;2217202;78;21021;-76
2022/02/27 09:38:41;;;;;;;70.57;31.20;;;;;;;1.02;85.54;102283.87;2217384;79;21073;-73
2022/02/27 09:41:44;;;;;;;75.45;33.25;;;;;;;1.15;85.45;102279.52;2215147;79;21602;-73
2022/02/27 09:44:50;;;;;;;77.60;33.78;;;;;;;1.24;85.32;102284.42;2214185;79;21592;-74
2022/02/27 09:47:54;;;;;;;75.57;31.60;;;;;;;1.27;85.24;102277.80;2215503;79;21742;-74
2022/02/27 09:50:57;;;;;;;72.70;32.58;;;;;;;1.29;84.99;102278.58;2213886;79;20970;-74
2022/02/27 09:54:04;;;;;;;74.12;33.40;;;;;;;1.36;84.99;102278.77;2215012;79;21029;-74
2022/02/27 09:57:10;;;;;;;70.70;32.67;;;;;;;1.36;84.81;102279.23;2216371;79;20958;-75
2022/02/27 10:00:15;;;;;;;64.85;30.23;;;;;;;1.36;84.88;102276.16;2216572;79;21017;-74
2022/02/27 10:03:21;;;;;;;74.65;36.48;;;;;;;1.41;84.64;102279.90;2212073;79;21107;-75
2022/02/27 10:06:26;;;;;;;87.67;39.10;;;;;;;1.47;84.49;102277.09;2217307;79;22294;-74
2022/02/27 10:09:28;;;;;;;74.75;36.38;;;;;;;1.51;84.45;102279.52;2215469;79;21068;-76
2022/02/27 10:12:31;;;;;;;64.20;31.70;;;;;;;1.60;84.44;102286.17;2214385;79;21088;-74
2022/02/27 10:15:35;;;;;;;67.75;31.70;;;;;;;1.61;84.10;102277.89;2217835;79;21111;-72
2022/02/27 10:18:47;;;;;;;61.13;28.57;;;;;;;1.57;83.90;102277.13;2216201;79;21111;-72
2022/02/27 10:21:49;;;;;;;63.80;29.72;;;;;;;1.58;83.86;102278.86;2217702;79;21542;-76
2022/02/27 10:24:51;;;;;;;61.05;31.23;;;;;;;1.48;83.62;102277.02;2214424;79;21543;-74
2022/02/27 10:27:58;;;;;;;64.62;32.42;;;;;;;1.57;83.75;102276.67;2216459;79;22220;-74
2022/02/27 10:31:09;;;;;;;74.97;36.13;;;;;;;1.58;83.56;102271.01;2216796;79;21161;-75
2022/02/27 10:34:33;;;;;;;64.22;31.62;;;;;;;1.65;83.76;102271.16;2213949;79;21025;-81
2022/02/27 10:37:42;;;;;;;64.67;29.35;;;;;;;1.74;83.89;102268.20;2220081;79;21056;-76
2022/02/27 10:40:50;;;;;;;64.10;30.88;;;;;;;1.93;83.67;102271.45;2214556;79;21076;-75
2022/02/27 10:43:53;;;;;;;56.23;26.05;;;;;;;2.02;83.48;102268.00;2213013;79;21060;-74
2022/02/27 10:47:22;;;;;;;59.65;28.83;;;;;;;2.10;83.12;102267.72;2217595;79;21036;-75
2022/02/27 10:50:27;;;;;;;69.62;32.45;;;;;;;2.13;82.94;102264.13;2207802;79;21037;-75
2022/02/27 10:53:39;;;;;;;66.10;29.65;;;;;;;2.07;82.59;102267.84;2215433;78;21359;-80
2022/02/27 10:56:46;;;;;;;63.40;28.23;;;;;;;2.12;82.65;102262.43;2216133;78;20993;-79
2022/02/27 10:59:47;;;;;;;56.18;27.70;;;;;;;2.21;82.87;102257.67;2211047;78;21059;-72
2022/02/27 11:02:53;;;;;;;61.25;29.42;;;;;;;2.30;82.55;102255.60;2213897;79;21075;-71
2022/02/27 11:05:54;;;;;;;59.18;29.67;;;;;;;2.41;82.48;102248.16;2211342;79;21052;-73
2022/02/27 11:08:58;;;;;;;56.75;28.50;;;;;;;2.45;82.07;102247.14;2215800;79;21710;-73
2022/02/27 11:12:06;;;;;;;55.00;27.27;;;;;;;2.46;82.05;102248.38;2195257;79;21045;-74
2022/02/27 11:15:11;;;;;;;60.03;28.10;;;;;;;2.52;81.92;102254.28;2193271;80;21068;-73
2022/02/27 11:18:13;;;;;;;52.98;27.70;;;;;;;2.59;82.12;102249.17;2193727;79;21007;-76
2022/02/27 11:21:15;;;;;;;55.58;27.87;;;;;;;2.61;81.49;102253.44;2170336;81;21151;-73
2022/02/27 11:24:18;;;;;;;57.70;30.60;;;;;;;2.49;81.39;102249.17;2187060;81;21010;-73
2022/02/27 11:27:27;;;;;;;56.30;28.65;;;;;;;2.50;81.63;102243.84;2189136;80;21025;-72
2022/02/27 11:30:31;;;;;;;61.90;28.95;;;;;;;2.49;81.32;102244.78;2195179;80;21025;-73
2022/02/27 11:33:33;;;;;;;51.92;26.42;;;;;;;2.47;81.46;102242.67;2189192;80;20994;-77
2022/02/27 11:36:38;;;;;;;55.45;28.27;;;;;;;2.58;81.31;102244.85;2190374;80;21061;-74
2022/02/27 11:43:03;;;;;;;52.75;27.27;;;;;;;2.65;81.14;102227.50;2191289;80;21492;-74
2022/02/27 11:46:05;;;;;;;51.28;27.32;;;;;;;2.65;80.78;102227.50;2189142;80;21061;-73
2022/02/27 11:49:25;;;;;;;50.08;26.07;;;;;;;2.66;80.32;102223.95;2189254;80;21010;-74
2022/02/27 11:52:32;;;;;;;44.55;23.32;;;;;;;2.67;80.77;102224.80;2183444;80;21068;-75
2022/02/27 11:55:45;;;;;;;49.33;27.30;;;;;;;2.65;80.28;102213.09;2138332;81;21049;-74
2022/02/27 11:58:50;;;;;;;50.90;28.15;;;;;;;2.61;80.25;102220.67;2162400;80;21076;-75
2022/02/27 12:01:57;;;;;;;55.15;28.98;;;;;;;2.75;80.81;102210.91;2171533;81;21096;-75
2022/02/27 12:05:02;;;;;;;59.95;30.80;;;;;;;2.94;80.60;102211.45;2196242;80;21079;-75
2022/02/27 12:08:08;;;;;;;65.67;33.50;;;;;;;2.98;80.10;102217.79;2195389;79;21028;-78
2022/02/27 12:11:33;;;;;;;66.50;31.87;;;;;;;3.01;80.20;102216.34;2197693;79;21048;-74
2022/02/27 12:14:35;;;;;;;57.93;29.50;;;;;;;3.07;80.08;102217.41;2193739;79;21020;-74
2022/02/27 12:18:09;;;;;;;61.05;31.05;;;;;;;3.09;79.74;102213.39;2196363;80;21020;-74
2022/02/27 12:21:12;;;;;;;65.10;30.88;;;;;;;3.07;79.58;102217.41;2195600;80;21485;-75
2022/02/27 12:24:24;;;;;;;56.37;29.05;;;;;;;3.08;79.64;102213.86;2167505;81;21049;-75
2022/02/27 12:27:30;;;;;;;52.50;28.25;;;;;;;3.04;79.17;102208.80;2131281;82;21049;-75
2022/02/27 12:30:33;;;;;;;48.38;25.90;;;;;;;3.00;79.19;102210.72;2190778;79;21512;-73
2022/02/27 12:33:39;;;;;;;48.70;25.95;;;;;;;3.01;79.00;102204.55;2144449;81;21571;-73
2022/02/27 12:36:41;;;;;;;48.90;26.68;;;;;;;3.04;77.88;102204.87;2142428;81;21563;-75
2022/02/27 12:39:45;;;;;;;55.98;31.00;;;;;;;2.98;77.81;102207.77;2114386;81;21052;-75
2022/02/27 12:42:49;;;;;;;50.17;28.32;;;;;;;2.98;78.11;102205.14;2136497;81;21078;-76
2022/02/27 12:45:52;;;;;;;43.98;25.12;;;;;;;2.94;77.82;102199.66;2136309;81;21097;-73
2022/02/27 12:52:18;;;;;;;49.90;26.00;;;;;;;2.84;77.28;102201.34;2140906;81;21073;-73
2022/02/27 12:55:21;;;;;;;44.40;26.55;;;;;;;2.79;77.44;102211.62;2130011;82;21135;-74
2022/02/27 12:58:23;;;;;;;48.42;27.27;;;;;;;2.73;77.46;102206.66;2195894;79;21095;-71
2022/02/27 13:01:33;;;;;;;50.03;27.55;;;;;;;2.78;77.68;102212.56;2166032;81;21745;-72
2022/02/27 13:04:37;;;;;;;48.38;26.87;;;;;;;2.86;77.74;102213.93;2193299;80;21020;-71
2022/02/27 13:07:41;;;;;;;44.85;25.23;;;;;;;2.75;76.99;102206.98;2188032;80;21088;-73
2022/02/27 13:10:43;;;;;;;47.40;27.32;;;;;;;2.65;77.00;102209.63;2198773;79;21583;-74
2022/02/27 13:13:46;;;;;;;44.67;25.70;;;;;;;2.52;77.38;102210.58;2182499;79;21037;-72
2022/02/27 13:16:54;;;;;;;50.60;27.30;;;;;;;2.43;77.51;102206.58;2214262;79;21037;-76
2022/02/27 13:20:00;;;;;;;39.23;23.83;;;;;;;2.42;77.70;102207.94;2214992;79;21002;-72
2022/02/27 13:23:04;;;;;;;46.10;26.50;;;;;;;2.40;77.60;102213.25;2211636;79;20977;-74
2022/02/27 13:26:06;;;;;;;55.28;28.05;;;;;;;2.41;77.82;102214.10;2164231;80;21097;-73
2022/02/27 13:29:09;;;;;;;48.58;26.93;;;;;;;2.45;77.98;102206.53;2217476;79;21059;-75
2022/02/27 13:32:18;;;;;;;49.65;27.58;;;;;;;2.40;77.63;102198.84;2211876;79;21016;-72
2022/02/27 13:35:41;;;;;;;48.38;26.50;;;;;;;2.33;77.84;102202.61;2218403;79;21578;-73
2022/02/27 13:38:51;;;;;;;50.33;27.13;;;;;;;2.22;77.62;102207.00;2217656;79;21099;-69
2022/02/27 13:41:53;;;;;;;44.70;23.80;;;;;;;2.00;77.91;102203.54;2216521;79;21004;-78
2022/02/27 13:44:57;;;;;;;42.55;24.45;;;;;;;1.92;78.23;102201.21;2217435;79;21531;-73
2022/02/27 13:48:05;;;;;;;44.90;24.23;;;;;;;1.90;78.25;102201.72;2211049;79;21012;-79
2022/02/27 13:51:09;;;;;;;41.08;22.67;;;;;;;1.97;78.34;102204.94;2212622;79;21045;-73
2022/02/27 13:54:23;;;;;;;42.83;22.60;;;;;;;1.92;78.08;102199.05;2214377;79;21606;-77
2022/02/27 13:57:31;;;;;;;40.05;21.35;;;;;;;1.87;78.08;102204.92;2220461;79;21531;-75
2022/02/27 14:00:34;;;;;;;40.17;22.73;;;;;;;1.79;78.33;102194.74;2214617;79;21587;-77
2022/02/27 14:03:42;;;;;;;45.10;25.68;;;;;;;1.76;78.42;102198.33;2219517;79;21295;-73